createdAt,value
2022-11-02T00:00:51.611Z,11.7
2022-11-02T00:02:55.739Z,11.6
2022-11-02T00:07:03.807Z,11.6
2022-11-02T00:09:10.894Z,11.6
2022-11-02T00:11:14.962Z,11.6
2022-11-02T00:13:19.035Z,11.6
2022-11-02T00:30:09.436Z,12.5
2022-11-02T00:32:13.509Z,12.7
2022-11-02T00:34:17.550Z,12.7
2022-11-02T00:36:24.636Z,12.7
2022-11-02T00:38:28.729Z,12.6
2022-11-02T00:40:32.795Z,12.7
2022-11-02T00:42:36.865Z,12.7
2022-11-02T00:44:40.950Z,12.8
2022-11-02T00:46:45.017Z,12.8
2022-11-02T00:48:49.103Z,12.8
2022-11-02T00:50:56.163Z,12.8
2022-11-02T00:55:04.325Z,12.8
2022-11-02T01:07:31.802Z,12.8
2022-11-02T01:11:39.961Z,12.8
2022-11-02T01:13:44.047Z,12.9
2022-11-02T01:15:48.131Z,12.8
2022-11-02T01:17:52.220Z,12.8
2022-11-02T01:19:59.312Z,12.8
2022-11-02T01:22:03.393Z,12.8
2022-11-02T01:24:07.460Z,12.7
2022-11-02T01:27:15.101Z,12.8
2022-11-02T01:29:19.181Z,12.8
2022-11-02T01:31:23.241Z,12.9
2022-11-02T01:33:30.336Z,12.7
2022-11-02T01:35:34.402Z,12.7
2022-11-02T01:37:38.505Z,12.6
2022-11-02T01:39:42.567Z,12.6
2022-11-02T01:41:46.662Z,12.7
2022-11-02T01:48:02.246Z,12.2
2022-11-02T01:50:05.995Z,12.1
2022-11-02T01:52:10.082Z,11.9
2022-11-02T01:54:14.152Z,11.7
2022-11-02T01:56:18.296Z,11.6
2022-11-02T01:58:22.303Z,11.5
2022-11-02T02:00:26.374Z,11.5
2022-11-02T02:02:33.608Z,11.5
2022-11-02T02:04:37.513Z,11.5
2022-11-02T02:06:41.761Z,11.6
2022-11-02T02:08:45.642Z,11.5
2022-11-02T02:10:49.723Z,11.5
2022-11-02T02:12:53.780Z,11.5
2022-11-02T02:14:57.845Z,11.5
2022-11-02T02:17:04.915Z,11.5
2022-11-02T02:19:09.003Z,11.5
2022-11-02T02:21:13.025Z,11.3
2022-11-02T02:22:16.538Z,11.2
2022-11-02T02:24:20.618Z,11.2
2022-11-02T02:26:24.672Z,11.1
2022-11-02T02:28:28.754Z,11
2022-11-02T02:30:35.793Z,10.8
2022-11-02T02:32:39.838Z,10.8
2022-11-02T02:36:47.936Z,10.7
2022-11-02T02:38:51.995Z,10.6
2022-11-02T02:40:56.038Z,10.6
2022-11-02T02:43:00.080Z,10.6
2022-11-02T02:45:07.113Z,10.5
2022-11-02T02:47:11.176Z,10.4
2022-11-02T02:51:19.243Z,10.4
2022-11-02T02:53:23.292Z,10.4
2022-11-02T02:55:27.322Z,10.4
2022-11-02T02:57:39.492Z,10.4
2022-11-02T02:59:38.401Z,10.3
2022-11-02T03:01:42.488Z,10.3
2022-11-02T03:03:46.448Z,10.3
2022-11-02T03:05:50.502Z,10.3
2022-11-02T03:07:54.560Z,10.3
2022-11-02T03:09:58.568Z,10.3
2022-11-02T03:12:02.605Z,10.4
2022-11-02T03:14:09.652Z,10.4
2022-11-02T03:16:13.673Z,10.5
2022-11-02T03:18:17.700Z,10.5
2022-11-02T03:19:21.209Z,10.5
2022-11-02T03:21:25.243Z,10.6
2022-11-02T03:23:29.286Z,10.6
2022-11-02T03:27:40.374Z,10.6
2022-11-02T03:31:48.437Z,10.6
2022-11-02T03:33:52.474Z,10.6
2022-11-02T03:38:00.535Z,10.7
2022-11-02T03:42:11.616Z,10.7
2022-11-02T03:44:15.649Z,10.7
2022-11-02T03:46:19.710Z,10.7
2022-11-02T03:48:23.729Z,10.7
2022-11-02T03:50:27.789Z,10.8
2022-11-02T03:52:31.793Z,10.7
2022-11-02T03:56:42.870Z,10.9
2022-11-02T03:58:46.911Z,10.9
2022-11-02T04:00:50.948Z,10.8
2022-11-02T04:02:54.979Z,10.9
2022-11-02T04:04:59.017Z,10.9
2022-11-02T04:07:03.066Z,10.9
2022-11-02T04:09:07.105Z,10.8
2022-11-02T04:13:18.198Z,11
2022-11-02T04:15:22.242Z,11
2022-11-02T04:19:50.806Z,11.2
2022-11-02T04:21:54.823Z,11.2
2022-11-02T04:24:01.914Z,11.1
2022-11-02T04:26:05.944Z,11.2
2022-11-02T04:28:09.985Z,11.2
2022-11-02T04:30:14.014Z,11.2
2022-11-02T04:32:18.072Z,11.3
2022-11-02T04:34:22.120Z,11.3
2022-11-02T04:36:26.165Z,11.4
2022-11-02T04:38:33.215Z,11.5
2022-11-02T04:40:37.274Z,11.5
2022-11-02T04:42:41.315Z,11.5
2022-11-02T04:44:45.396Z,11.5
2022-11-02T04:46:49.449Z,11.5
2022-11-02T04:48:53.501Z,11.5
2022-11-02T04:50:57.547Z,11.6
2022-11-02T04:59:16.814Z,11.8
2022-11-02T05:07:36.106Z,11.8
2022-11-02T05:11:44.228Z,11.7
2022-11-02T05:12:49.330Z,11.6
2022-11-02T05:14:53.376Z,11.6
2022-11-02T05:16:57.433Z,11.7
2022-11-02T05:19:03.500Z,11.7
2022-11-02T05:21:08.570Z,11.8
2022-11-02T05:23:12.640Z,11.9
2022-11-02T05:25:16.705Z,12
2022-11-02T05:27:20.766Z,12.1
2022-11-02T05:29:24.857Z,12.2
2022-11-02T05:31:28.920Z,12.1
2022-11-02T05:43:56.357Z,11.9
2022-11-02T05:48:04.481Z,11.9
2022-11-02T05:50:11.561Z,11.9
2022-11-02T05:52:15.650Z,11.9
2022-11-02T05:54:19.700Z,11.9
2022-11-02T05:58:27.855Z,11.7
2022-11-02T06:00:31.912Z,11.7
2022-11-02T06:02:35.994Z,11.7
2022-11-02T06:04:43.076Z,11.6
2022-11-02T06:06:47.136Z,11.7
2022-11-02T06:09:54.752Z,11.6
2022-11-02T06:11:58.827Z,11.5
2022-11-02T06:14:02.908Z,11.5
2022-11-02T06:16:06.954Z,11.5
2022-11-02T06:18:14.053Z,11.5
2022-11-02T06:20:18.112Z,11.6
2022-11-02T06:22:22.168Z,11.5
2022-11-02T06:24:26.253Z,11.4
2022-11-02T06:26:30.313Z,11.3
2022-11-02T06:28:34.389Z,11.4
2022-11-02T06:30:38.458Z,11.4
2022-11-02T06:32:45.530Z,11.4
2022-11-02T06:34:49.570Z,11.5
2022-11-02T06:36:53.650Z,11.6
2022-11-02T06:38:58.702Z,11.6
2022-11-02T06:45:10.863Z,11.7
2022-11-02T06:47:17.961Z,11.6
2022-11-02T06:49:22.015Z,11.5
2022-11-02T06:53:30.153Z,11.5
2022-11-02T06:59:42.330Z,11.6
2022-11-02T07:03:53.472Z,11.6
2022-11-02T07:05:57.547Z,11.5
2022-11-02T07:07:01.068Z,11.5
2022-11-02T07:09:05.145Z,11.6
2022-11-02T07:11:09.201Z,11.6
2022-11-02T07:13:13.260Z,11.7
2022-11-02T07:15:20.349Z,11.8
2022-11-02T07:17:28.241Z,11.8
2022-11-02T07:19:28.461Z,11.9
2022-11-02T07:21:32.636Z,11.9
2022-11-02T07:23:36.581Z,11.9
2022-11-02T07:25:40.646Z,12.2
2022-11-02T07:27:44.705Z,12.4
2022-11-02T07:29:51.791Z,12.5
2022-11-02T07:31:55.853Z,12.4
2022-11-02T07:33:59.905Z,12.4
2022-11-02T07:36:03.986Z,12.5
2022-11-02T07:38:08.046Z,12.4
2022-11-02T07:40:12.100Z,12.3
2022-11-02T07:42:16.191Z,12.1
2022-11-02T07:44:23.253Z,12.1
2022-11-02T07:46:27.360Z,12.2
2022-11-02T07:48:31.401Z,12.3
2022-11-02T07:50:35.477Z,12.2
2022-11-02T07:52:39.559Z,12.2
2022-11-02T07:54:44.717Z,12.2
2022-11-02T07:56:47.710Z,12.2
2022-11-02T07:58:54.773Z,12.4
2022-11-02T08:01:00.023Z,12.3
2022-11-02T08:03:03.214Z,12.3
2022-11-02T08:05:27.326Z,12.1
2022-11-02T08:07:31.397Z,12.1
2022-11-02T08:09:35.486Z,12
2022-11-02T08:11:42.596Z,11.9
2022-11-02T08:13:46.632Z,12
2022-11-02T08:15:50.857Z,12.2
2022-11-02T08:17:54.793Z,12.4
2022-11-02T08:19:58.888Z,12.3
2022-11-02T08:22:02.964Z,12.2
2022-11-02T08:24:07.023Z,12.3
2022-11-02T08:26:14.128Z,12.4
2022-11-02T08:28:18.198Z,12.5
2022-11-02T08:30:22.261Z,12.5
2022-11-02T08:32:26.352Z,12.5
2022-11-02T08:34:30.421Z,12.6
2022-11-02T08:38:38.592Z,12.7
2022-11-02T08:42:49.772Z,12.9
2022-11-02T08:44:53.860Z,12.9
2022-11-02T08:46:57.957Z,12.9
2022-11-02T08:51:06.124Z,12.9
2022-11-02T08:53:10.206Z,12.9
2022-11-02T08:55:17.321Z,13
2022-11-02T08:57:21.412Z,13
2022-11-02T08:59:25.510Z,13.1
2022-11-02T09:00:29.048Z,13.1
2022-11-02T09:02:33.303Z,13.2
2022-11-02T09:04:37.260Z,13.1
2022-11-02T09:06:41.354Z,13.1
2022-11-02T09:08:48.452Z,13.2
2022-11-02T09:10:52.543Z,13.2
2022-11-02T09:12:56.637Z,13.2
2022-11-02T09:15:00.744Z,13.3
2022-11-02T09:19:08.928Z,13.2
2022-11-02T09:21:13.023Z,13.4
2022-11-02T09:23:20.299Z,13.5
2022-11-02T09:25:24.263Z,13.5
2022-11-02T09:27:28.357Z,13.4
2022-11-02T09:29:32.452Z,13.5
2022-11-02T09:31:36.572Z,13.5
2022-11-02T09:33:40.686Z,13.6
2022-11-02T09:35:44.777Z,13.5
2022-11-02T09:37:51.898Z,13.7
2022-11-02T09:39:55.999Z,13.6
2022-11-02T09:42:00.125Z,13.5
2022-11-02T09:44:04.248Z,13.7
2022-11-02T09:46:08.352Z,13.7
2022-11-02T09:48:18.731Z,13.7
2022-11-02T09:50:16.594Z,13.6
2022-11-02T09:54:27.795Z,13.7
2022-11-02T09:56:31.895Z,14
2022-11-02T09:57:35.457Z,14.1
2022-11-02T09:59:39.566Z,14
2022-11-02T10:01:43.768Z,13.8
2022-11-02T10:03:47.789Z,13.8
2022-11-02T10:05:54.930Z,14
2022-11-02T10:12:07.278Z,14.3
2022-11-02T10:14:11.375Z,14.2
2022-11-02T10:16:15.490Z,14.4
2022-11-02T10:18:19.579Z,14.3
2022-11-02T10:20:26.742Z,14.3
2022-11-02T10:22:30.831Z,14.4
2022-11-02T10:24:34.950Z,14.5
2022-11-02T10:26:39.054Z,14.3
2022-11-02T10:28:43.178Z,14.2
2022-11-02T10:30:47.437Z,14.3
2022-11-02T10:32:51.405Z,14.6
2022-11-02T10:35:17.495Z,15.1
2022-11-02T10:37:02.660Z,15
2022-11-02T10:39:06.780Z,15.3
2022-11-02T10:41:10.878Z,15.8
2022-11-02T10:43:15.008Z,15.5
2022-11-02T10:45:19.136Z,16
2022-11-02T10:49:30.376Z,17
2022-11-02T10:51:34.500Z,17.3
2022-11-02T10:54:42.188Z,17.3
2022-11-02T10:56:46.300Z,17.4
2022-11-02T10:58:50.422Z,17.8
2022-11-02T11:00:54.724Z,17.7
2022-11-02T11:03:01.688Z,16.9
2022-11-02T11:05:05.805Z,16.7
2022-11-02T11:07:09.901Z,15.7
2022-11-02T11:09:14.026Z,16.1
2022-11-02T11:11:19.747Z,16.4
2022-11-02T11:15:48.509Z,17.6
2022-11-02T11:19:40.114Z,16.1
2022-11-02T11:21:43.294Z,14.7
2022-11-02T11:23:47.417Z,15
2022-11-02T11:27:55.692Z,16.4
2022-11-02T11:34:11.047Z,18.4
2022-11-02T11:36:15.259Z,17.2
2022-11-02T11:38:19.288Z,16.4
2022-11-02T11:40:23.490Z,17.8
2022-11-02T11:42:27.532Z,17.5
2022-11-02T11:44:31.671Z,16.1
2022-11-02T11:46:38.792Z,17.5
2022-11-02T11:48:42.927Z,17.7
2022-11-02T11:50:47.056Z,18.8
2022-11-02T11:53:05.929Z,19.9
2022-11-02T11:55:09.784Z,20
2022-11-02T11:59:21.063Z,17.6
2022-11-02T12:01:25.262Z,17.9
2022-11-02T12:03:29.319Z,17
2022-11-02T12:05:33.444Z,16.7
2022-11-02T12:07:37.557Z,16.1
2022-11-02T12:09:41.702Z,15.6
2022-11-02T12:11:45.861Z,14.9
2022-11-02T12:15:57.105Z,15.3
2022-11-02T12:18:01.229Z,15.3
2022-11-02T12:20:05.363Z,15
2022-11-02T12:22:09.522Z,14.9
2022-11-02T12:24:13.632Z,15
2022-11-02T12:26:17.755Z,15.1
2022-11-02T12:28:24.890Z,14.8
2022-11-02T12:30:29.036Z,14.8
2022-11-02T12:32:33.161Z,15
2022-11-02T12:34:37.296Z,15.3
2022-11-02T12:38:45.527Z,15.4
2022-11-02T12:40:49.769Z,15.5
2022-11-02T12:42:56.779Z,14.8
2022-11-02T12:48:08.884Z,15
2022-11-02T12:50:12.753Z,15.1
2022-11-02T12:56:28.092Z,15.8
2022-11-02T13:00:36.413Z,16.7
2022-11-02T13:02:40.456Z,15.5
2022-11-02T13:04:44.583Z,15.2
2022-11-02T13:06:48.700Z,15.1
2022-11-02T13:08:53.784Z,15.2
2022-11-02T13:11:00.920Z,16.2
2022-11-02T13:15:12.070Z,15.3
2022-11-02T13:19:17.436Z,15.4
2022-11-02T13:21:21.558Z,15.5
2022-11-02T13:23:25.722Z,15.2
2022-11-02T13:25:32.805Z,15.1
2022-11-02T13:27:38.543Z,15.2
2022-11-02T13:29:41.053Z,15.4
2022-11-02T13:31:45.196Z,15.2
2022-11-02T13:33:49.308Z,15
2022-11-02T13:35:53.435Z,14.8
2022-11-02T13:37:57.564Z,14.8
2022-11-02T13:40:04.759Z,14.6
2022-11-02T13:42:08.802Z,14.6
2022-11-02T13:44:12.941Z,14.6
2022-11-02T13:45:16.611Z,14.6
2022-11-02T13:47:20.634Z,14.6
2022-11-02T13:49:24.752Z,14.7
2022-11-02T13:51:28.864Z,14.8
2022-11-02T13:53:36.006Z,15
2022-11-02T13:55:42.982Z,15.2
2022-11-02T13:57:44.265Z,15.2
2022-11-02T13:59:48.359Z,15.1
2022-11-02T14:01:52.685Z,15.2
2022-11-02T14:04:01.681Z,15.1
2022-11-02T14:06:00.737Z,15.1
2022-11-02T14:08:08.285Z,15
2022-11-02T14:10:12.038Z,15
2022-11-02T14:12:16.161Z,15.1
2022-11-02T14:14:20.276Z,15
2022-11-02T14:16:24.400Z,15
2022-11-02T14:18:28.538Z,14.9
2022-11-02T14:20:32.638Z,14.8
2022-11-02T14:24:43.910Z,14.7
2022-11-02T14:26:48.028Z,14.7
2022-11-02T14:28:52.153Z,14.6
2022-11-02T14:30:56.397Z,14.7
2022-11-02T14:33:00.389Z,14.5
2022-11-02T14:35:04.507Z,14.5
2022-11-02T14:37:11.637Z,14.4
2022-11-02T14:39:15.764Z,14.5
2022-11-02T14:41:19.878Z,14.4
2022-11-02T14:42:23.438Z,14.4
2022-11-02T14:44:27.604Z,14.5
2022-11-02T14:46:31.683Z,14.7
2022-11-02T14:48:35.823Z,14.5
2022-11-02T14:50:42.943Z,14.5
2022-11-02T14:52:47.068Z,14.4
2022-11-02T14:54:51.166Z,14.4
2022-11-02T14:56:55.294Z,14.3
2022-11-02T14:58:59.411Z,14.4
2022-11-02T15:01:03.726Z,14.4
2022-11-02T15:03:08.084Z,14.3
2022-11-02T15:05:14.766Z,14.1
2022-11-02T15:07:18.870Z,14.1
2022-11-02T15:09:22.980Z,14.1
2022-11-02T15:11:27.088Z,14
2022-11-02T15:13:31.214Z,13.9
2022-11-02T15:15:35.325Z,13.9
2022-11-02T15:17:40.138Z,13.9
2022-11-02T15:19:47.253Z,13.7
2022-11-02T15:21:51.397Z,13.6
2022-11-02T15:23:55.483Z,13.5
2022-11-02T15:25:59.588Z,13.4
2022-11-02T15:28:04.213Z,13.3
2022-11-02T15:30:07.845Z,13.2
2022-11-02T15:32:11.883Z,13.1
2022-11-02T15:34:18.998Z,13.1
2022-11-02T15:36:23.096Z,13
2022-11-02T15:38:32.629Z,13
2022-11-02T15:40:51.632Z,13
2022-11-02T15:42:55.729Z,13
2022-11-02T15:45:05.468Z,12.9
2022-11-02T15:47:06.937Z,13
2022-11-02T15:49:11.041Z,12.9
2022-11-02T15:51:15.122Z,12.9
2022-11-02T15:53:24.057Z,12.8
2022-11-02T15:55:23.427Z,12.8
2022-11-02T15:57:27.410Z,12.8
2022-11-02T16:01:38.698Z,12.7
2022-11-02T16:03:42.700Z,12.6
2022-11-02T16:05:46.792Z,12.6
2022-11-02T16:08:10.116Z,12.5
2022-11-02T16:09:54.960Z,12.4
2022-11-02T16:11:59.051Z,12.4
2022-11-02T16:14:08.815Z,12.4
2022-11-02T16:16:10.253Z,12.3
2022-11-02T16:18:14.366Z,12.3
2022-11-02T16:20:18.444Z,12.3
2022-11-02T16:22:22.521Z,12.2
2022-11-02T16:24:26.621Z,12.1
2022-11-02T16:26:30.682Z,12.1
2022-11-02T16:28:34.768Z,12.1
2022-11-02T16:30:41.851Z,12.1
2022-11-02T16:32:45.933Z,12
2022-11-02T16:34:50.041Z,11.9
2022-11-02T16:35:53.560Z,11.9
2022-11-02T16:37:57.615Z,11.9
2022-11-02T16:40:01.780Z,11.8
2022-11-02T16:42:05.791Z,11.8
2022-11-02T16:44:12.902Z,11.7
2022-11-02T16:46:16.956Z,11.8
2022-11-02T16:48:21.070Z,11.8
2022-11-02T16:50:25.115Z,11.8
2022-11-02T16:52:29.212Z,11.9
2022-11-02T16:54:33.272Z,11.7
2022-11-02T16:56:37.339Z,11.7
2022-11-02T16:58:44.458Z,11.6
2022-11-02T17:00:48.556Z,11.6
2022-11-02T17:02:52.597Z,11.7
2022-11-02T17:04:59.174Z,11.7
2022-11-02T17:07:00.763Z,11.8
2022-11-02T17:09:06.411Z,11.7
2022-11-02T17:11:10.463Z,11.7
2022-11-02T17:13:21.849Z,11.7
2022-11-02T17:15:21.600Z,11.7
2022-11-02T17:17:25.685Z,11.6
2022-11-02T17:19:29.751Z,11.5
2022-11-02T17:21:33.811Z,11.5
2022-11-02T17:23:37.890Z,11.5
2022-11-02T17:25:41.952Z,11.6
2022-11-02T17:27:49.040Z,11.6
2022-11-02T17:29:53.110Z,11.6
2022-11-02T17:31:57.232Z,11.6
2022-11-02T17:33:00.714Z,11.6
2022-11-02T17:35:04.808Z,11.6
2022-11-02T17:37:08.863Z,11.6
2022-11-02T17:39:12.922Z,11.6
2022-11-02T17:41:20.025Z,11.6
2022-11-02T17:43:24.074Z,11.6
2022-11-02T17:45:28.166Z,11.7
2022-11-02T17:47:32.233Z,11.7
2022-11-02T17:49:36.289Z,11.7
2022-11-02T17:51:40.381Z,11.7
2022-11-02T17:53:44.433Z,11.7
2022-11-02T17:57:55.577Z,11.7
2022-11-02T17:59:59.651Z,11.7
2022-11-02T18:02:03.885Z,11.8
2022-11-02T18:04:07.812Z,11.7
2022-11-02T18:06:11.858Z,11.6
2022-11-02T18:08:15.927Z,11.7
2022-11-02T18:10:22.999Z,11.5
2022-11-02T18:12:27.115Z,11.6
2022-11-02T18:14:31.136Z,11.5
2022-11-02T18:16:35.209Z,11.5
2022-11-02T18:18:39.259Z,11.4
2022-11-02T18:20:43.329Z,11.4
2022-11-02T18:22:47.404Z,11.5
2022-11-02T18:24:54.484Z,11.5
2022-11-02T18:26:58.702Z,11.5
2022-11-02T18:29:02.634Z,11.4
2022-11-02T18:30:06.156Z,11.5
2022-11-02T18:32:10.215Z,11.5
2022-11-02T18:34:14.271Z,11.5
2022-11-02T18:36:18.341Z,11.5
2022-11-02T18:38:25.413Z,11.5
2022-11-02T18:42:33.548Z,11.5
2022-11-02T18:44:37.600Z,11.5
2022-11-02T18:46:41.664Z,11.5
2022-11-02T18:48:45.723Z,11.5
2022-11-02T18:50:49.792Z,11.5
2022-11-02T18:52:56.860Z,11.5
2022-11-02T18:55:00.912Z,11.6
2022-11-02T18:57:04.968Z,11.5
2022-11-02T18:59:09.023Z,11.4
2022-11-02T19:01:13.228Z,11.4
2022-11-02T19:05:21.210Z,11.5
2022-11-02T19:09:32.363Z,11.4
2022-11-02T19:13:40.495Z,11.4
2022-11-02T19:15:44.568Z,11.4
2022-11-02T19:19:52.676Z,11.5
2022-11-02T19:21:59.762Z,11.5
2022-11-02T19:32:40.369Z,11.7
2022-11-02T19:34:47.450Z,11.7
2022-11-02T19:36:51.701Z,11.7
2022-11-02T19:38:55.577Z,11.7
2022-11-02T19:40:59.635Z,11.7
2022-11-02T19:43:04.190Z,11.7
2022-11-02T19:45:07.782Z,11.7
2022-11-02T19:47:11.857Z,11.7
2022-11-02T19:49:18.929Z,11.7
2022-11-02T19:51:22.998Z,11.7
2022-11-02T19:53:27.047Z,11.6
2022-11-02T19:55:31.122Z,11.7
2022-11-02T19:57:35.175Z,11.7
2022-11-02T19:59:39.253Z,11.8
2022-11-02T20:01:43.493Z,11.8
2022-11-02T20:03:50.409Z,11.7
2022-11-02T20:05:54.476Z,11.6
2022-11-02T20:07:58.564Z,11.6
2022-11-02T20:10:02.657Z,11.6
2022-11-02T20:12:06.702Z,11.7
2022-11-02T20:14:10.773Z,11.8
2022-11-02T20:16:14.828Z,11.7
2022-11-02T20:18:22.245Z,11.7
2022-11-02T20:20:25.996Z,11.7
2022-11-02T20:22:30.079Z,11.6
2022-11-02T20:23:33.584Z,11.6
2022-11-02T20:25:37.670Z,11.6
2022-11-02T20:27:41.744Z,11.6
2022-11-02T20:29:45.814Z,11.7
2022-11-02T20:31:52.870Z,11.6
2022-11-02T20:33:56.936Z,11.6
2022-11-02T20:36:01.019Z,11.6
2022-11-02T20:38:05.390Z,11.7
2022-11-02T20:40:09.167Z,11.6
2022-11-02T20:42:13.217Z,11.6
2022-11-02T20:44:17.279Z,11.6
2022-11-02T20:46:37.150Z,11.6
2022-11-02T20:48:28.437Z,11.6
2022-11-02T20:50:32.524Z,11.6
2022-11-02T20:52:36.562Z,11.6
2022-11-02T20:54:40.638Z,11.6
2022-11-02T20:56:44.691Z,11.6
2022-11-02T20:58:54.432Z,11.6
2022-11-02T21:02:59.910Z,11.6
2022-11-02T21:09:12.403Z,11.5
2022-11-02T21:13:20.231Z,11.5
2022-11-02T21:17:31.378Z,11.5
2022-11-02T21:19:35.442Z,11.6
2022-11-02T21:20:38.989Z,11.5
2022-11-02T21:22:43.052Z,11.5
2022-11-02T21:24:47.090Z,11.5
2022-11-02T21:26:51.174Z,11.6
2022-11-02T21:28:58.228Z,11.6
2022-11-02T21:31:02.317Z,11.6
2022-11-02T21:33:06.828Z,11.6
2022-11-02T21:35:10.441Z,11.6
2022-11-02T21:37:14.501Z,11.6
2022-11-02T21:39:18.573Z,11.6
2022-11-02T21:41:22.620Z,11.6
2022-11-02T21:43:29.709Z,11.7
2022-11-02T21:45:37.645Z,11.7
2022-11-02T21:47:37.851Z,11.7
2022-11-02T21:49:41.894Z,11.6
2022-11-02T21:51:45.963Z,11.7
2022-11-02T21:53:50.097Z,11.7
2022-11-02T21:55:54.108Z,11.7
2022-11-02T21:58:01.172Z,11.6
2022-11-02T22:00:05.254Z,11.6
2022-11-02T22:04:13.385Z,11.6
2022-11-02T22:06:17.432Z,11.7
2022-11-02T22:08:21.527Z,11.7
2022-11-02T22:10:25.578Z,11.6
2022-11-02T22:12:32.650Z,11.6
2022-11-02T22:14:36.713Z,11.7
2022-11-02T22:16:40.789Z,11.8
2022-11-02T22:17:49.509Z,11.7
2022-11-02T22:19:48.384Z,11.7
2022-11-02T22:34:19.888Z,11.7
2022-11-02T22:38:28.031Z,11.7
2022-11-02T22:40:35.099Z,11.7
2022-11-02T22:42:41.566Z,11.7
2022-11-02T22:44:43.256Z,11.7
2022-11-02T22:46:47.316Z,11.7
2022-11-02T22:48:51.386Z,11.7
2022-11-02T22:50:55.461Z,11.7
2022-11-02T22:57:10.683Z,11.7
2022-11-02T22:59:14.752Z,11.7
2022-11-02T23:01:18.972Z,11.7
2022-11-02T23:03:22.936Z,11.6
2022-11-02T23:05:26.977Z,11.6
2022-11-02T23:07:32.644Z,11.7
2022-11-02T23:09:39.691Z,11.6
2022-11-02T23:11:43.730Z,11.5
2022-11-02T23:13:47.797Z,11.6
2022-11-02T23:18:10.516Z,11.6
2022-11-02T23:20:14.595Z,11.5
2022-11-02T23:22:21.735Z,11.5
2022-11-02T23:24:25.737Z,11.5
2022-11-02T23:26:29.819Z,11.4
2022-11-02T23:28:33.898Z,11.3
2022-11-02T23:30:37.951Z,11.4
2022-11-02T23:32:42.045Z,11.4
2022-11-02T23:34:46.086Z,11.4
2022-11-02T23:36:53.320Z,11.4
2022-11-02T23:38:57.225Z,11.3
2022-11-02T23:41:01.300Z,11.3
2022-11-02T23:43:05.720Z,11.3
2022-11-02T23:45:09.436Z,11.3
2022-11-02T23:47:13.487Z,11.3
2022-11-02T23:49:17.559Z,11.3
2022-11-02T23:59:40.876Z,11
